createdAt,value
2019-02-10T00:01:17.281Z,99416.53
2019-02-10T00:03:46.276Z,99406.92
2019-02-10T00:06:15.296Z,99403.88
2019-02-10T00:08:44.297Z,99403.44
2019-02-10T00:11:13.282Z,99411.36
2019-02-10T00:13:42.291Z,99398.66
2019-02-10T00:16:19.060Z,99402.67
2019-02-10T00:18:48.415Z,99399.16
2019-02-10T00:21:17.425Z,99402.67
2019-02-10T00:23:46.419Z,99397.41
2019-02-10T00:26:15.421Z,99398.73
2019-02-10T00:28:46.209Z,99393.05
2019-02-10T00:31:15.221Z,99384.28
2019-02-10T00:33:44.187Z,99386.02
2019-02-10T00:36:13.218Z,99376.84
2019-02-10T00:38:42.206Z,99377.31
2019-02-10T00:41:11.243Z,99372.09
2019-02-10T00:43:40.234Z,99369.91
2019-02-10T00:46:09.230Z,99376.08
2019-02-10T00:48:38.202Z,99364.22
2019-02-10T00:51:07.188Z,99350.66
2019-02-10T00:53:36.178Z,99356.80
2019-02-10T00:56:05.152Z,99355.99
2019-02-10T00:58:34.142Z,99342.42
2019-02-10T01:01:03.148Z,99341.58
2019-02-10T01:03:32.120Z,99327.59
2019-02-10T01:06:01.310Z,99331.55
2019-02-10T01:08:30.283Z,99320.17
2019-02-10T01:10:59.279Z,99323.23
2019-02-10T01:13:28.320Z,99324.57
2019-02-10T01:15:57.471Z,99319.77
2019-02-10T01:18:26.441Z,99323.70
2019-02-10T01:20:55.431Z,99325.88
2019-02-10T01:23:24.406Z,99321.07
2019-02-10T01:25:53.387Z,99320.70
2019-02-10T01:28:22.382Z,99306.27
2019-02-10T01:30:51.444Z,99306.27
2019-02-10T01:33:20.427Z,99304.53
2019-02-10T01:35:49.380Z,99301.92
2019-02-10T01:38:18.380Z,99296.66
2019-02-10T01:40:47.345Z,99295.36
2019-02-10T01:43:16.329Z,99287.92
2019-02-10T01:45:45.332Z,99284.45
2019-02-10T01:48:14.348Z,99278.28
2019-02-10T01:50:43.314Z,99279.58
2019-02-10T01:53:12.284Z,99275.66
2019-02-10T01:55:41.322Z,99261.69
2019-02-10T01:58:10.305Z,99266.55
2019-02-10T02:00:39.318Z,99261.75
2019-02-10T02:03:08.314Z,99249.55
2019-02-10T02:05:37.295Z,99238.18
2019-02-10T02:08:06.284Z,99230.78
2019-02-10T02:10:35.263Z,99226.41
2019-02-10T02:13:04.243Z,99218.12
2019-02-10T02:15:33.218Z,99214.63
2019-02-10T02:18:02.230Z,99208.95
2019-02-10T02:20:31.211Z,99206.78
2019-02-10T02:23:00.215Z,99201.53
2019-02-10T02:25:29.163Z,99196.80
2019-02-10T02:27:58.152Z,99192.00
2019-02-10T02:30:27.106Z,99188.55
2019-02-10T02:32:56.099Z,99181.98
2019-02-10T02:35:25.075Z,99172.81
2019-02-10T02:37:54.077Z,99167.61
2019-02-10T02:40:23.090Z,99164.97
2019-02-10T02:42:52.072Z,99160.58
2019-02-10T02:45:21.059Z,99159.30
2019-02-10T02:47:50.032Z,99155.80
2019-02-10T02:50:19.023Z,99152.81
2019-02-10T02:52:47.976Z,99143.60
2019-02-10T02:55:16.976Z,99140.91
2019-02-10T02:57:45.946Z,99148.44
2019-02-10T03:00:14.916Z,99136.64
2019-02-10T03:02:43.939Z,99142.36
2019-02-10T03:05:12.936Z,99133.18
2019-02-10T03:07:41.909Z,99129.65
2019-02-10T03:10:10.941Z,99120.02
2019-02-10T03:12:39.920Z,99115.64
2019-02-10T03:15:08.945Z,99107.34
2019-02-10T03:17:38.155Z,99098.12
2019-02-10T03:20:07.157Z,99090.62
2019-02-10T03:22:36.146Z,99086.68
2019-02-10T03:25:05.216Z,99084.02
2019-02-10T03:27:34.231Z,99078.72
2019-02-10T03:30:03.225Z,99080.88
2019-02-10T03:32:32.205Z,99071.30
2019-02-10T03:35:01.175Z,99059.03
2019-02-10T03:37:30.141Z,99052.42
2019-02-10T03:39:59.135Z,99048.52
2019-02-10T03:42:28.091Z,99046.31
2019-02-10T03:44:57.059Z,99042.70
2019-02-10T03:47:26.080Z,99029.19
2019-02-10T03:49:55.081Z,99021.31
2019-02-10T03:52:24.059Z,99016.86
2019-02-10T03:54:53.021Z,99004.13
2019-02-10T03:57:22.018Z,99001.91
2019-02-10T03:59:51.000Z,98991.41
2019-02-10T04:02:19.986Z,98978.25
2019-02-10T04:04:49.026Z,98964.25
2019-02-10T04:07:18.021Z,98941.48
2019-02-10T04:09:46.982Z,98946.73
2019-02-10T04:12:15.960Z,98959.89
2019-02-10T04:14:44.931Z,98966.09
2019-02-10T04:17:13.903Z,98971.78
2019-02-10T04:19:42.901Z,98950.35
2019-02-10T04:22:11.886Z,98945.05
2019-02-10T04:24:40.870Z,98946.44
2019-02-10T04:27:09.839Z,98939.41
2019-02-10T04:29:38.817Z,98939.41
2019-02-10T04:32:07.788Z,98925.81
2019-02-10T04:34:37.089Z,98920.06
2019-02-10T04:37:06.064Z,98919.66
2019-02-10T04:39:35.033Z,98917.47
2019-02-10T04:42:03.997Z,98906.97
2019-02-10T04:44:32.947Z,98903.94
2019-02-10T04:47:01.941Z,98899.50
2019-02-10T04:49:30.967Z,98889.05
2019-02-10T04:51:59.964Z,98889.59
2019-02-10T04:54:28.926Z,98880.45
2019-02-10T04:56:57.894Z,98872.92
2019-02-10T04:59:26.899Z,98871.30
2019-02-10T05:01:55.877Z,98849.54
2019-02-10T05:04:24.873Z,98833.93
2019-02-10T05:06:53.844Z,98825.23
2019-02-10T05:09:22.931Z,98824.34
2019-02-10T05:11:51.904Z,98816.48
2019-02-10T05:14:20.890Z,98808.26
2019-02-10T05:16:49.854Z,98801.27
2019-02-10T05:19:18.846Z,98799.11
2019-02-10T05:21:47.824Z,98796.11
2019-02-10T05:24:16.829Z,98778.24
2019-02-10T05:26:45.811Z,98776.01
2019-02-10T05:29:14.837Z,98764.68
2019-02-10T05:31:43.748Z,98766.02
2019-02-10T05:34:12.718Z,98766.56
2019-02-10T05:36:41.702Z,98757.36
2019-02-10T05:39:10.658Z,98744.33
2019-02-10T05:41:39.662Z,98736.50
2019-02-10T05:44:08.652Z,98737.08
2019-02-10T05:46:37.642Z,98727.86
2019-02-10T05:49:06.613Z,98715.59
2019-02-10T05:51:35.589Z,98715.54
2019-02-10T05:54:04.572Z,98712.19
2019-02-10T05:56:33.567Z,98707.41
2019-02-10T05:59:02.637Z,98722.72
2019-02-10T06:02:03.830Z,98680.36
2019-02-10T06:04:34.955Z,98677.83
2019-02-10T06:07:07.535Z,98680.41
2019-02-10T06:09:36.546Z,98666.03
2019-02-10T06:12:05.481Z,98659.48
2019-02-10T06:14:34.471Z,98655.08
2019-02-10T06:17:03.459Z,98642.44
2019-02-10T06:19:32.649Z,98625.03
2019-02-10T06:22:01.613Z,98622.77
2019-02-10T06:24:30.580Z,98599.70
2019-02-10T06:26:59.571Z,98606.13
2019-02-10T06:29:28.554Z,98592.59
2019-02-10T06:31:57.533Z,98585.64
2019-02-10T06:34:26.513Z,98586.61
2019-02-10T06:36:55.507Z,98562.52
2019-02-10T06:39:24.468Z,98552.04
2019-02-10T06:41:53.431Z,98550.60
2019-02-10T06:44:22.428Z,98532.84
2019-02-10T06:46:51.396Z,98531.12
2019-02-10T06:49:20.382Z,98521.39
2019-02-10T06:51:49.365Z,98510.02
2019-02-10T06:54:18.348Z,98492.10
2019-02-10T06:56:47.327Z,98493.86
2019-02-10T06:59:29.086Z,98480.00
2019-02-10T07:02:03.209Z,98470.77
2019-02-10T07:04:32.614Z,98433.14
2019-02-10T07:07:01.603Z,98433.14
2019-02-10T07:09:30.561Z,98449.69
2019-02-10T07:11:59.555Z,98433.09
2019-02-10T07:14:36.968Z,98430.47
2019-02-10T07:17:45.045Z,98417.28
2019-02-10T07:20:40.209Z,98415.94
2019-02-10T07:23:35.147Z,98409.66
2019-02-10T07:26:18.924Z,98387.67
2019-02-10T07:29:40.681Z,98378.01
2019-02-10T07:32:20.505Z,98357.89
2019-02-10T07:35:36.647Z,98356.07
2019-02-10T07:38:16.961Z,98339.02
2019-02-10T07:41:41.846Z,98327.61
2019-02-10T07:44:44.862Z,98331.03
2019-02-10T07:47:35.248Z,98307.27
2019-02-10T07:50:12.050Z,98300.22
2019-02-10T07:52:48.571Z,98299.33
2019-02-10T07:56:02.636Z,98276.86
2019-02-10T07:59:12.024Z,98273.30
2019-02-10T08:02:10.356Z,98266.16
2019-02-10T08:05:19.886Z,98251.58
2019-02-10T08:08:46.436Z,98261.11
2019-02-10T08:11:50.534Z,98236.56
2019-02-10T08:14:46.626Z,98246.67
2019-02-10T08:17:43.929Z,98236.94
2019-02-10T08:20:29.221Z,98208.41
2019-02-10T08:23:19.623Z,98215.53
2019-02-10T08:26:24.137Z,98214.48
2019-02-10T08:29:09.941Z,98186.87
2019-02-10T08:32:18.768Z,98175.95
2019-02-10T08:35:43.886Z,98177.30
2019-02-10T08:38:38.245Z,98172.91
2019-02-10T08:41:57.691Z,98144.21
2019-02-10T08:45:19.300Z,98131.83
2019-02-10T08:48:29.260Z,98122.92
2019-02-10T08:51:40.850Z,98107.91
2019-02-10T08:54:10.640Z,98106.91
2019-02-10T08:56:39.620Z,98099.85
2019-02-10T08:59:08.606Z,98094.87
2019-02-10T09:01:37.641Z,98089.58
2019-02-10T09:04:06.646Z,98092.03
2019-02-10T09:06:35.668Z,98072.62
2019-02-10T09:09:05.568Z,98073.25
2019-02-10T09:11:34.564Z,98063.15
2019-02-10T09:14:03.648Z,98064.05
2019-02-10T09:16:32.669Z,98056.63
2019-02-10T09:19:01.697Z,98048.79
2019-02-10T09:21:30.725Z,98043.44
2019-02-10T09:23:59.723Z,98042.22
2019-02-10T09:26:28.740Z,98029.84
2019-02-10T09:28:57.774Z,98034.16
2019-02-10T09:31:26.806Z,98014.22
2019-02-10T09:33:55.889Z,98008.97
2019-02-10T09:36:24.895Z,98004.02
2019-02-10T09:38:54.209Z,98000.08
2019-02-10T09:41:24.113Z,97999.67
2019-02-10T09:43:53.109Z,97985.69
2019-02-10T09:46:22.129Z,97979.98
2019-02-10T09:48:51.230Z,97976.08
2019-02-10T09:51:20.242Z,97971.73
2019-02-10T09:53:49.272Z,97964.20
2019-02-10T09:56:18.285Z,97968.02
2019-02-10T09:58:47.426Z,97961.98
2019-02-10T10:01:16.452Z,97976.30
2019-02-10T10:03:45.490Z,97959.02
2019-02-10T10:06:14.485Z,97941.02
2019-02-10T10:08:43.538Z,97947.55
2019-02-10T10:11:14.986Z,97942.73
2019-02-10T10:13:44.066Z,97933.33
2019-02-10T10:16:13.110Z,97937.28
2019-02-10T10:18:42.154Z,97935.95
2019-02-10T10:21:11.389Z,97928.74
2019-02-10T10:23:40.459Z,97937.95
2019-02-10T10:26:09.579Z,97961.11
2019-02-10T10:28:38.603Z,97935.63
2019-02-10T10:31:07.668Z,97923.38
2019-02-10T10:33:36.708Z,97931.67
2019-02-10T10:36:06.311Z,97926.52
2019-02-10T10:38:35.334Z,97925.15
2019-02-10T10:41:04.389Z,97908.52
2019-02-10T10:43:33.867Z,97922.26
2019-02-10T10:46:02.903Z,97924.94
2019-02-10T10:48:31.968Z,97908.76
2019-02-10T10:51:00.956Z,97901.73
2019-02-10T10:53:30.015Z,97905.79
2019-02-10T10:55:59.022Z,97901.14
2019-02-10T10:58:28.162Z,97895.89
2019-02-10T11:00:57.180Z,97894.06
2019-02-10T11:03:26.215Z,97882.44
2019-02-10T11:05:55.264Z,97884.45
2019-02-10T11:08:24.232Z,97881.36
2019-02-10T11:10:53.276Z,97876.09
2019-02-10T11:13:22.337Z,97873.35
2019-02-10T11:15:53.644Z,97865.35
2019-02-10T11:18:22.712Z,97864.33
2019-02-10T11:20:51.730Z,97852.66
2019-02-10T11:23:20.766Z,97856.82
2019-02-10T11:25:49.763Z,97853.73
2019-02-10T11:28:18.958Z,97846.70
2019-02-10T11:30:47.943Z,97840.12
2019-02-10T11:33:17.009Z,97827.31
2019-02-10T11:35:46.019Z,97823.37
2019-02-10T11:38:15.044Z,97819.53
2019-02-10T11:40:44.048Z,97809.12
2019-02-10T11:43:13.129Z,97814.78
2019-02-10T11:45:42.417Z,97804.66
2019-02-10T11:48:11.413Z,97800.72
2019-02-10T11:50:40.470Z,97809.52
2019-02-10T11:53:09.551Z,97791.11
2019-02-10T11:55:38.656Z,97784.19
2019-02-10T11:58:07.660Z,97787.27
2019-02-10T12:00:36.657Z,97778.98
2019-02-10T12:03:05.687Z,97766.38
2019-02-10T12:05:34.706Z,97772.80
2019-02-10T12:08:03.749Z,97766.17
2019-02-10T12:10:32.940Z,97754.79
2019-02-10T12:13:01.952Z,97749.02
2019-02-10T12:15:31.006Z,97740.44
2019-02-10T12:18:00.014Z,97735.17
2019-02-10T12:20:29.066Z,97737.05
2019-02-10T12:22:58.802Z,97730.87
2019-02-10T12:25:27.816Z,97738.36
2019-02-10T12:27:56.976Z,97715.45
2019-02-10T12:30:25.992Z,97712.81
2019-02-10T12:32:54.954Z,97711.45
2019-02-10T12:35:24.216Z,97708.11
2019-02-10T12:37:53.233Z,97702.75
2019-02-10T12:40:22.277Z,97700.61
2019-02-10T12:42:51.341Z,97700.98
2019-02-10T12:45:20.541Z,97691.14
2019-02-10T12:47:49.629Z,97696.92
2019-02-10T12:50:18.699Z,97689.37
2019-02-10T12:52:47.737Z,97688.84
2019-02-10T12:55:16.755Z,97681.25
2019-02-10T12:57:45.770Z,97679.08
2019-02-10T13:00:17.743Z,97681.20
2019-02-10T13:02:46.433Z,97680.73
2019-02-10T13:05:15.466Z,97669.76
2019-02-10T13:07:44.490Z,97653.86
2019-02-10T13:10:15.708Z,97645.72
2019-02-10T13:12:44.724Z,97645.78
2019-02-10T13:15:13.791Z,97656.64
2019-02-10T13:17:42.828Z,97657.90
2019-02-10T13:20:12.114Z,97668.70
2019-02-10T13:22:41.339Z,97647.77
2019-02-10T13:25:10.552Z,97656.98
2019-02-10T13:27:39.530Z,97646.85
2019-02-10T13:30:10.322Z,97647.19
2019-02-10T13:32:39.354Z,97643.03
2019-02-10T13:35:08.469Z,97643.89
2019-02-10T13:37:37.457Z,97650.47
2019-02-10T13:40:16.389Z,97641.72
2019-02-10T13:42:40.048Z,97638.50
2019-02-10T13:45:09.370Z,97642.91
2019-02-10T13:47:38.695Z,97634.89
2019-02-10T13:50:09.026Z,97636.94
2019-02-10T13:52:38.090Z,97634.64
2019-02-10T13:55:07.723Z,97635.44
2019-02-10T13:57:39.960Z,97635.83
2019-02-10T14:00:12.597Z,97640.54
2019-02-10T14:02:41.673Z,97648.50
2019-02-10T14:05:10.781Z,97643.97
2019-02-10T14:07:39.843Z,97638.24
2019-02-10T14:10:09.091Z,97643.11
2019-02-10T14:12:38.274Z,97640.94
2019-02-10T14:15:09.355Z,97648.44
2019-02-10T14:17:38.490Z,97644.09
2019-02-10T14:20:09.300Z,97640.94
2019-02-10T14:22:38.633Z,97651.86
2019-02-10T14:25:08.061Z,97651.73
2019-02-10T14:27:37.097Z,97646.47
2019-02-10T14:30:06.606Z,97668.27
2019-02-10T14:32:35.828Z,97665.69
2019-02-10T14:35:05.914Z,97659.17
2019-02-10T14:37:35.320Z,97658.66
2019-02-10T14:40:04.832Z,97653.97
2019-02-10T14:42:34.394Z,97668.45
2019-02-10T14:45:03.464Z,97675.16
2019-02-10T14:47:32.499Z,97686.20
2019-02-10T14:50:01.530Z,97692.55
2019-02-10T14:52:30.707Z,97685.56
2019-02-10T14:54:59.748Z,97681.28
2019-02-10T14:57:28.834Z,97689.81
2019-02-10T14:59:57.940Z,97688.04
2019-02-10T15:02:26.951Z,97678.44
2019-02-10T15:04:56.198Z,97686.56
2019-02-10T15:07:25.581Z,97695.93
2019-02-10T15:09:55.440Z,97686.32
2019-02-10T15:12:24.527Z,97697.82
2019-02-10T15:14:53.619Z,97692.56
2019-02-10T15:17:23.017Z,97675.40
2019-02-10T15:19:52.143Z,97687.70
2019-02-10T15:22:21.477Z,97686.27
2019-02-10T15:24:50.554Z,97706.91
2019-02-10T15:27:19.749Z,97692.63
2019-02-10T15:29:48.982Z,97708.00
2019-02-10T15:32:18.070Z,97701.83
2019-02-10T15:34:47.148Z,97701.43
2019-02-10T15:37:16.257Z,97696.80
2019-02-10T15:39:45.385Z,97694.57
2019-02-10T15:42:14.394Z,97714.02
2019-02-10T15:44:43.469Z,97696.52
2019-02-10T15:47:12.566Z,97696.52
2019-02-10T15:49:41.943Z,97702.58
2019-02-10T15:52:11.093Z,97704.16
2019-02-10T15:54:40.196Z,97707.77
2019-02-10T15:57:09.301Z,97691.41
2019-02-10T15:59:38.942Z,97695.13
2019-02-10T16:02:08.243Z,97690.78
2019-02-10T16:04:37.398Z,97686.59
2019-02-10T16:07:06.567Z,97683.09
2019-02-10T16:09:37.328Z,97685.21
2019-02-10T16:12:06.564Z,97674.75
2019-02-10T16:14:35.871Z,97679.61
2019-02-10T16:17:04.985Z,97678.41
2019-02-10T16:19:34.125Z,97693.08
2019-02-10T16:22:03.779Z,97686.88
2019-02-10T16:24:33.009Z,97678.67
2019-02-10T16:27:02.238Z,97683.53
2019-02-10T16:29:31.323Z,97673.53
2019-02-10T16:32:00.830Z,97701.14
2019-02-10T16:34:29.909Z,97691.65
2019-02-10T16:36:59.186Z,97705.83
2019-02-10T16:39:28.671Z,97698.45
2019-02-10T16:41:57.664Z,97713.36
2019-02-10T16:44:26.869Z,97708.51
2019-02-10T16:46:56.541Z,97717.51
2019-02-10T16:49:25.642Z,97718.42
2019-02-10T16:51:54.849Z,97719.84
2019-02-10T16:54:24.613Z,97719.45
2019-02-10T16:56:53.841Z,97714.70
2019-02-10T16:59:22.944Z,97714.30
2019-02-10T17:01:52.176Z,97718.13
2019-02-10T17:04:21.593Z,97696.83
2019-02-10T17:06:50.906Z,97719.55
2019-02-10T17:09:20.051Z,97716.13
2019-02-10T17:11:50.044Z,97721.48
2019-02-10T17:14:19.509Z,97730.28
2019-02-10T17:16:48.791Z,97725.54
2019-02-10T17:19:18.019Z,97742.63
2019-02-10T17:21:47.421Z,97740.50
2019-02-10T17:24:17.063Z,97738.97
2019-02-10T17:26:46.377Z,97756.67
2019-02-10T17:29:15.849Z,97762.92
2019-02-10T17:31:45.101Z,97755.50
2019-02-10T17:34:14.321Z,97769.14
2019-02-10T17:36:43.714Z,97767.37
2019-02-10T17:39:19.359Z,97775.82
2019-02-10T17:41:49.968Z,97763.30
2019-02-10T17:44:19.157Z,97772.20
2019-02-10T17:46:48.240Z,97783.40
2019-02-10T17:49:17.541Z,97803.95
2019-02-10T17:51:46.721Z,97791.23
2019-02-10T17:54:16.214Z,97788.95
2019-02-10T17:56:45.559Z,97784.77
2019-02-10T17:59:15.131Z,97790.42
2019-02-10T18:01:44.917Z,97785.35
2019-02-10T18:04:14.418Z,97803.89
2019-02-10T18:06:44.050Z,97789.04
2019-02-10T18:09:13.413Z,97801.20
2019-02-10T18:11:42.878Z,97807.83
2019-02-10T18:14:39.328Z,97812.67
2019-02-10T18:17:31.364Z,97824.39
2019-02-10T18:20:11.768Z,97833.18
2019-02-10T18:22:48.295Z,97833.28
2019-02-10T18:25:39.613Z,97831.45
2019-02-10T18:28:22.524Z,97846.00
2019-02-10T18:31:11.059Z,97839.62
2019-02-10T18:33:50.024Z,97848.64
2019-02-10T18:36:38.150Z,97848.28
2019-02-10T18:39:29.910Z,97844.39
2019-02-10T18:42:21.579Z,97850.14
2019-02-10T18:44:57.995Z,97859.87
2019-02-10T18:47:38.018Z,97854.76
2019-02-10T18:50:26.491Z,97859.33
2019-02-10T18:53:16.087Z,97856.17
2019-02-10T18:56:07.924Z,97852.77
2019-02-10T18:58:54.157Z,97861.41
2019-02-10T19:01:48.306Z,97857.02
2019-02-10T19:04:39.700Z,97870.59
2019-02-10T19:07:16.076Z,97868.79
2019-02-10T19:10:20.154Z,97883.68
2019-02-10T19:13:17.797Z,97883.84
2019-02-10T19:15:57.267Z,97891.36
2019-02-10T19:18:55.090Z,97906.56
2019-02-10T19:21:34.316Z,97910.77
2019-02-10T19:24:20.521Z,97924.43
2019-02-10T19:27:20.775Z,97927.50
2019-02-10T19:30:07.781Z,97946.33
2019-02-10T19:32:54.946Z,97947.43
2019-02-10T19:35:42.480Z,97962.35
2019-02-10T19:38:30.914Z,97951.09
2019-02-10T19:41:18.474Z,97976.99
2019-02-10T19:44:07.739Z,97968.30
2019-02-10T19:46:59.297Z,97978.42
2019-02-10T19:49:47.115Z,97993.66
2019-02-10T19:52:43.442Z,98009.47
2019-02-10T19:55:32.252Z,98004.76
2019-02-10T19:58:20.457Z,98018.84
2019-02-10T20:01:24.475Z,98013.38
2019-02-10T20:04:06.691Z,98033.16
2019-02-10T20:06:55.243Z,98045.09
2019-02-10T20:09:53.274Z,98049.66
2019-02-10T20:12:40.883Z,98056.73
2019-02-10T20:15:24.621Z,98063.91
2019-02-10T20:18:26.487Z,98063.26
2019-02-10T20:21:14.380Z,98074.36
2019-02-10T20:24:10.594Z,98082.66
2019-02-10T20:26:57.910Z,98091.42
2019-02-10T20:29:59.053Z,98101.59
2019-02-10T20:32:48.599Z,98111.30
2019-02-10T20:35:36.821Z,98116.54
2019-02-10T20:38:28.738Z,98124.49
2019-02-10T20:41:04.709Z,98131.55
2019-02-10T20:43:56.507Z,98137.66
2019-02-10T20:46:30.790Z,98149.95
2019-02-10T20:49:12.199Z,98157.09
2019-02-10T20:52:06.934Z,98171.97
2019-02-10T20:54:48.590Z,98181.14
2019-02-10T20:57:40.225Z,98193.78
2019-02-10T21:00:37.713Z,98195.16
2019-02-10T21:03:24.497Z,98201.76
2019-02-10T21:06:12.853Z,98213.15
2019-02-10T21:08:55.368Z,98217.50
2019-02-10T21:11:42.625Z,98222.77
2019-02-10T21:14:27.243Z,98234.13
2019-02-10T21:17:33.525Z,98236.38
2019-02-10T21:20:20.170Z,98248.28
2019-02-10T21:23:20.296Z,98248.33
2019-02-10T21:26:01.034Z,98258.05
2019-02-10T21:28:48.055Z,98272.05
2019-02-10T21:31:36.458Z,98272.54
2019-02-10T21:34:27.336Z,98283.89
2019-02-10T21:37:18.419Z,98293.56
2019-02-10T21:40:05.100Z,98299.59
2019-02-10T21:42:46.351Z,98306.23
2019-02-10T21:45:37.147Z,98315.02
2019-02-10T21:48:40.163Z,98318.89
2019-02-10T21:51:09.263Z,98325.48
2019-02-10T21:53:38.249Z,98332.98
2019-02-10T21:56:07.281Z,98333.05
2019-02-10T21:58:36.301Z,98337.45
2019-02-10T22:01:05.322Z,98344.45
2019-02-10T22:03:34.362Z,98351.91
2019-02-10T22:06:03.382Z,98363.25
2019-02-10T22:12:13.944Z,98368.13
2019-02-10T22:14:44.394Z,98378.21
2019-02-10T22:17:16.094Z,98386.53
2019-02-10T22:19:46.187Z,98391.31
2019-02-10T22:22:17.674Z,98393.05
2019-02-10T22:24:47.648Z,98397.39
2019-02-10T22:27:18.230Z,98405.66
2019-02-10T22:29:47.748Z,98409.16
2019-02-10T22:32:19.671Z,98413.51
2019-02-10T22:34:49.988Z,98429.67
2019-02-10T22:37:20.260Z,98421.02
2019-02-10T22:39:52.196Z,98438.86
2019-02-10T22:42:21.305Z,98440.63
2019-02-10T22:44:50.269Z,98445.86
2019-02-10T22:47:19.535Z,98461.55
2019-02-10T22:49:48.673Z,98475.08
2019-02-10T22:52:17.649Z,98479.02
2019-02-10T22:54:47.091Z,98488.17
2019-02-10T22:57:16.097Z,98492.45
2019-02-10T22:59:45.140Z,98513.40
2019-02-10T23:02:14.175Z,98514.89
2019-02-10T23:04:43.197Z,98519.25
2019-02-10T23:07:12.154Z,98523.66
2019-02-10T23:09:41.127Z,98538.09
2019-02-10T23:12:10.107Z,98546.38
2019-02-10T23:14:39.090Z,98551.16
2019-02-10T23:17:08.094Z,98565.50
2019-02-10T23:19:37.088Z,98560.33
2019-02-10T23:22:06.063Z,98567.80
2019-02-10T23:24:35.048Z,98572.20
2019-02-10T23:27:04.046Z,98586.16
2019-02-10T23:29:33.110Z,98592.69
2019-02-10T23:32:02.060Z,98601.80
2019-02-10T23:34:31.071Z,98615.66
2019-02-10T23:37:00.056Z,98624.41
2019-02-10T23:39:29.026Z,98637.12
2019-02-10T23:41:58.012Z,98646.63
2019-02-10T23:44:27.025Z,98647.58
2019-02-10T23:46:55.990Z,98656.32
2019-02-10T23:49:24.993Z,98666.38
2019-02-10T23:51:53.987Z,98663.31
2019-02-10T23:54:22.958Z,98678.98
2019-02-10T23:56:51.947Z,98680.77
2019-02-10T23:59:20.957Z,98687.73
